CheckWX is a tool to help pilots better visualize weather data.  It is not intended as a substitute for an official pre-flight weather briefing.

01:25:27 UTC

KMKL TAF
Mc Kellar-Sipes Regional Airport
Jackson, Tennessee, USA
KMKL 212325Z 2200/2224 36007KT P6SM SKC FM221200 00000KT P6SM BKN250 FM221700 17005KT P6SM BKN250 FM222100 14007KT P6SM OVC250

Jan-22@
00:00 UTC

Jan-22 @ 00:00 UTC

Jan-22@
12:00 UTC

Jan-22 @ 12:00 UTC

KMKL 212325Z 2200/2224 36007KT P6SM SKC
Wind
  • 360° at 7 KTS
Cloud Levels
  • Clear skies

Jan-22@
12:00 UTC

Jan-22 @ 12:00 UTC

Jan-22@
17:00 UTC

Jan-22 @ 17:00 UTC

FM221200 00000KT P6SM BKN250

From

From Standard forecast or significant change

Cloud Levels
  • Broken at 25,000' AGL

Jan-22@
17:00 UTC

Jan-22 @ 17:00 UTC

Jan-22@
21:00 UTC

Jan-22 @ 21:00 UTC

FM221700 17005KT P6SM BKN250

From

From Standard forecast or significant change

Wind
  • 170° at 5 KTS
Cloud Levels
  • Broken at 25,000' AGL

Jan-22@
21:00 UTC

Jan-22 @ 21:00 UTC

Jan-23@
00:00 UTC

Jan-23 @ 00:00 UTC

FM222100 14007KT P6SM OVC250

From

From Standard forecast or significant change

Wind
  • 140° at 7 KTS
Cloud Levels
  • Overcast at 25,000' AGL